Time;durP1;ratioP1;P1;durP2;ratioP2;P2;SDS_P1;SDS_P2;PMS_P1;PMS_P2;Temp;Humidity;BMP_temperature;BMP_pressure;BME280_temperature;BME280_humidity;BME280_pressure;Samples;Min_cycle;Max_cycle;Signal;HPM_P1;HPM_P2
2022/06/28 00:00:09;;;;;;;0.90;0.40;;;16.90;63.30;;;;;;4979909;28;20019;-79
2022/06/28 00:02:35;;;;;;;1.77;0.60;;;16.90;63.10;;;;;;4993923;28;20030;-79
2022/06/28 00:05:01;;;;;;;1.15;0.60;;;16.80;63.70;;;;;;4997579;28;20118;-79
2022/06/28 00:07:27;;;;;;;1.20;0.50;;;16.60;64.40;;;;;;4998918;28;20030;-79
2022/06/28 00:09:53;;;;;;;1.95;0.50;;;16.70;64.70;;;;;;4996848;28;20555;-79
2022/06/28 00:12:18;;;;;;;3.28;0.45;;;16.60;65.00;;;;;;4998964;28;20030;-80
2022/06/28 00:17:32;;;;;;;3.85;0.88;;;16.60;65.10;;;;;;5018694;28;20469;-79
2022/06/28 00:19:57;;;;;;;3.83;0.60;;;16.70;64.80;;;;;;4995025;28;20031;-79
2022/06/28 00:22:23;;;;;;;2.40;0.50;;;16.70;64.60;;;;;;4979536;28;20114;-79
2022/06/28 00:24:49;;;;;;;1.88;0.50;;;16.70;64.70;;;;;;4996173;28;20867;-79
2022/06/28 00:27:14;;;;;;;0.73;0.40;;;16.60;64.80;;;;;;4998670;28;20038;-79
2022/06/28 00:29:40;;;;;;;2.33;0.60;;;16.50;65.30;;;;;;4998239;28;20504;-79
2022/06/28 00:32:07;;;;;;;1.98;0.50;;;16.30;66.00;;;;;;4997976;28;20038;-79
2022/06/28 00:34:32;;;;;;;1.52;0.50;;;16.20;66.70;;;;;;4998779;28;20488;-79
2022/06/28 00:36:58;;;;;;;3.78;0.80;;;16.30;66.40;;;;;;4996892;28;20045;-79
2022/06/28 00:39:24;;;;;;;3.00;0.63;;;16.30;65.30;;;;;;4979380;28;20027;-79
2022/06/28 00:41:50;;;;;;;0.82;0.35;;;16.20;66.20;;;;;;4979043;28;20023;-79
2022/06/28 00:44:15;;;;;;;1.77;1.38;;;16.20;66.30;;;;;;4979115;28;20070;-79
2022/06/28 00:46:41;;;;;;;2.20;0.93;;;16.20;66.50;;;;;;4977409;28;20034;-79
2022/06/28 00:49:08;;;;;;;1.30;0.50;;;16.30;65.90;;;;;;4979068;28;20053;-79
2022/06/28 00:51:38;;;;;;;1.88;0.63;;;16.20;66.40;;;;;;4978909;28;20150;-79
2022/06/28 00:54:04;;;;;;;3.33;0.60;;;16.20;66.50;;;;;;4979289;28;20039;-79
2022/06/28 00:56:30;;;;;;;1.63;0.60;;;16.20;65.50;;;;;;4982969;28;20080;-79
2022/06/28 00:58:55;;;;;;;3.33;0.85;;;16.10;66.10;;;;;;5012712;28;20034;-79
2022/06/28 01:01:22;;;;;;;3.70;0.63;;;16.10;65.70;;;;;;4979565;28;20038;-80
2022/06/28 01:03:48;;;;;;;3.38;0.80;;;16.00;65.90;;;;;;4977315;28;20030;-79
2022/06/28 01:06:14;;;;;;;3.55;0.88;;;16.10;65.20;;;;;;4977950;28;20500;-79
2022/06/28 01:08:46;;;;;;;1.27;0.77;;;16.00;65.70;;;;;;4978796;28;20041;-79
2022/06/28 01:11:20;;;;;;;1.95;0.70;;;16.00;66.10;;;;;;4978733;28;20058;-79
2022/06/28 01:14:08;;;;;;;;;;;;;;;;;;;;;
2022/06/28 01:16:36;;;;;;;2.45;0.70;;;16.00;66.10;;;;;;4989812;28;20041;-79
2022/06/28 01:19:04;;;;;;;3.75;0.80;;;16.00;66.00;;;;;;4997870;28;20031;-79
2022/06/28 01:21:30;;;;;;;4.32;0.73;;;16.00;66.30;;;;;;4997683;28;20023;-79
2022/06/28 01:23:57;;;;;;;1.77;0.90;;;15.90;66.10;;;;;;4995804;28;20030;-79
2022/06/28 01:26:23;;;;;;;5.28;0.90;;;15.80;66.30;;;;;;4980421;28;20378;-79
2022/06/28 01:28:50;;;;;;;3.95;0.88;;;15.90;66.30;;;;;;4976950;28;20033;-79
2022/06/28 01:31:21;;;;;;;2.50;0.77;;;15.80;66.70;;;;;;4978304;28;20397;-79
2022/06/28 01:33:47;;;;;;;1.50;0.75;;;15.80;66.50;;;;;;4977431;28;20042;-79
2022/06/28 01:36:14;;;;;;;1.65;0.88;;;15.70;67.00;;;;;;4982796;28;20536;-79
2022/06/28 01:38:41;;;;;;;2.53;0.77;;;15.70;67.00;;;;;;4978161;28;20033;-79
2022/06/28 01:41:08;;;;;;;3.97;1.02;;;15.60;67.30;;;;;;4976302;28;20536;-79
2022/06/28 01:43:35;;;;;;;1.88;0.68;;;15.60;67.60;;;;;;4996937;28;20038;-79
2022/06/28 01:46:03;;;;;;;5.18;1.20;;;15.60;67.60;;;;;;4997648;28;20385;-79
2022/06/28 01:48:32;;;;;;;4.22;0.90;;;15.60;67.40;;;;;;4989155;28;20082;-79
2022/06/28 01:50:58;;;;;;;2.92;1.20;;;15.60;67.10;;;;;;4978008;28;20065;-79
2022/06/28 01:53:23;;;;;;;5.72;0.90;;;15.60;66.50;;;;;;4976737;28;20030;-79
2022/06/28 01:55:49;;;;;;;4.68;1.05;;;15.60;67.00;;;;;;4977892;28;20026;-79
2022/06/28 01:58:15;;;;;;;4.57;0.88;;;15.50;67.90;;;;;;4994700;28;20124;-79
2022/06/28 02:00:41;;;;;;;1.30;0.80;;;15.50;67.50;;;;;;4997309;28;20074;-79
2022/06/28 02:03:07;;;;;;;2.80;0.73;;;15.50;67.70;;;;;;4997120;28;20022;-79
2022/06/28 02:05:35;;;;;;;3.22;0.98;;;15.40;68.20;;;;;;4978009;28;20118;-79
2022/06/28 02:08:01;;;;;;;1.77;1.00;;;15.40;67.60;;;;;;4979656;28;20031;-79
2022/06/28 02:10:27;;;;;;;8.68;2.03;;;15.50;67.60;;;;;;4977588;28;20074;-79
2022/06/28 02:12:53;;;;;;;2.72;1.25;;;15.40;67.90;;;;;;4977764;28;20071;-79
2022/06/28 02:15:19;;;;;;;3.05;1.00;;;15.30;68.70;;;;;;4998122;28;20026;-79
2022/06/28 02:17:45;;;;;;;2.65;1.05;;;15.30;68.70;;;;;;4994742;28;20097;-79
2022/06/28 02:20:13;;;;;;;2.80;0.98;;;15.30;68.50;;;;;;4975823;28;20078;-79
2022/06/28 02:22:42;;;;;;;5.10;1.35;;;15.30;68.30;;;;;;4977386;28;20549;-79
2022/06/28 02:25:08;;;;;;;4.85;1.80;;;15.30;68.40;;;;;;4976528;28;20031;-79
2022/06/28 02:27:33;;;;;;;1.25;0.73;;;15.30;67.70;;;;;;4975979;28;20035;-79
2022/06/28 02:29:59;;;;;;;2.05;1.10;;;15.30;68.20;;;;;;4977289;28;20042;-79
2022/06/28 02:32:25;;;;;;;1.80;0.85;;;15.30;68.00;;;;;;4977207;28;20027;-79
2022/06/28 02:40:22;;;;;;;2.63;1.15;;;15.30;67.90;;;;;;4996586;28;20033;-79
2022/06/28 02:42:59;;;;;;;1.90;0.73;;;15.20;67.70;;;;;;4993582;28;20041;-79
2022/06/28 02:45:29;;;;;;;2.78;0.98;;;15.20;67.70;;;;;;4975783;28;20482;-79
2022/06/28 02:47:55;;;;;;;5.55;1.02;;;15.20;67.70;;;;;;4975880;28;20386;-79
2022/06/28 02:50:21;;;;;;;1.75;0.80;;;15.20;66.90;;;;;;4977167;28;20042;-79
2022/06/28 02:52:47;;;;;;;3.60;1.17;;;15.20;67.70;;;;;;4975886;28;20027;-79
2022/06/28 02:55:13;;;;;;;3.08;0.90;;;15.10;67.80;;;;;;4975862;28;20494;-79
2022/06/28 02:57:39;;;;;;;4.50;0.85;;;15.00;67.70;;;;;;4989350;28;20057;-78
2022/06/28 03:00:10;;;;;;;4.75;0.75;;;15.00;68.10;;;;;;4996399;28;20025;-79
2022/06/28 03:02:41;;;;;;;1.15;0.70;;;14.90;68.00;;;;;;4987760;28;20130;-79
2022/06/28 03:05:10;;;;;;;4.22;0.77;;;14.80;68.30;;;;;;4976567;28;20083;-79
2022/06/28 03:07:36;;;;;;;2.92;1.13;;;14.80;69.30;;;;;;4976748;28;20610;-79
2022/06/28 03:10:03;;;;;;;1.90;0.80;;;14.70;69.10;;;;;;4976089;28;20022;-79
2022/06/28 03:12:29;;;;;;;2.65;0.80;;;14.70;69.20;;;;;;4976018;28;20045;-79
2022/06/28 03:14:54;;;;;;;1.85;0.95;;;14.70;69.90;;;;;;4990632;28;20025;-78
2022/06/28 03:17:20;;;;;;;3.03;0.90;;;14.80;69.00;;;;;;5015424;28;20118;-79
2022/06/28 03:19:46;;;;;;;3.90;1.10;;;14.80;69.60;;;;;;5015564;28;20061;-79
2022/06/28 03:22:11;;;;;;;2.10;0.73;;;14.80;68.60;;;;;;5015642;28;20034;-79
2022/06/28 03:24:37;;;;;;;5.15;1.10;;;14.80;68.90;;;;;;5007554;28;20034;-79
2022/06/28 03:27:03;;;;;;;3.67;1.30;;;14.80;68.90;;;;;;4976390;28;20481;-79
2022/06/28 03:29:28;;;;;;;4.03;0.90;;;14.80;68.50;;;;;;4974924;28;20027;-79
2022/06/28 03:31:54;;;;;;;1.83;0.90;;;14.80;68.50;;;;;;4976287;28;20085;-79
2022/06/28 03:34:20;;;;;;;3.05;0.88;;;14.80;68.80;;;;;;4975967;28;20034;-79
2022/06/28 03:36:50;;;;;;;1.65;1.02;;;14.80;68.30;;;;;;4976543;28;20597;-79
2022/06/28 03:39:16;;;;;;;2.10;0.95;;;14.70;68.60;;;;;;4976238;28;20019;-79
2022/06/28 03:41:42;;;;;;;6.38;3.53;;;14.50;70.00;;;;;;4976169;28;20034;-79
2022/06/28 03:44:08;;;;;;;7.72;1.67;;;14.60;69.30;;;;;;4974901;28;20586;-79
2022/06/28 03:46:33;;;;;;;2.88;1.13;;;14.60;69.00;;;;;;4993281;28;20046;-79
2022/06/28 03:48:59;;;;;;;2.63;0.88;;;14.60;68.90;;;;;;4993830;28;20030;-79
2022/06/28 03:51:25;;;;;;;2.15;1.00;;;14.50;68.70;;;;;;4981052;28;20031;-79
2022/06/28 03:53:50;;;;;;;1.63;0.90;;;14.50;69.40;;;;;;4974560;28;20038;-79
2022/06/28 03:56:16;;;;;;;10.63;1.50;;;14.40;69.20;;;;;;4978544;28;20397;-79
2022/06/28 03:58:42;;;;;;;4.28;1.00;;;14.30;70.10;;;;;;4977522;28;20120;-79
2022/06/28 04:01:08;;;;;;;2.78;1.38;;;14.30;69.80;;;;;;4976131;28;20035;-79
2022/06/28 04:03:34;;;;;;;2.58;1.02;;;14.40;69.40;;;;;;4976298;28;20019;-79
2022/06/28 04:06:00;;;;;;;1.75;0.90;;;14.50;69.40;;;;;;4980094;28;20038;-79
2022/06/28 04:08:25;;;;;;;3.70;1.20;;;14.40;69.30;;;;;;4975703;28;20021;-79
2022/06/28 04:11:13;;;;;;;3.22;1.20;;;14.40;69.30;;;;;;4976100;28;20023;-79
2022/06/28 04:13:46;;;;;;;5.15;1.25;;;14.40;69.50;;;;;;4975976;28;20031;-79
2022/06/28 04:16:20;;;;;;;4.07;0.90;;;14.40;69.00;;;;;;5010748;28;20046;-79
2022/06/28 04:18:46;;;;;;;1.40;1.10;;;14.40;69.00;;;;;;5007285;28;20066;-79
2022/06/28 04:21:14;;;;;;;4.18;1.38;;;14.30;69.60;;;;;;4978272;28;20405;-82
2022/06/28 04:23:40;;;;;;;4.78;1.23;;;14.30;69.60;;;;;;4991899;28;20396;-80
2022/06/28 04:26:06;;;;;;;6.38;1.10;;;14.30;69.80;;;;;;4998331;28;20130;-80
2022/06/28 04:28:32;;;;;;;2.38;1.08;;;14.30;69.50;;;;;;4997462;28;20022;-80
2022/06/28 04:30:58;;;;;;;2.60;1.00;;;14.20;70.10;;;;;;4983466;28;20041;-80
2022/06/28 04:33:24;;;;;;;2.28;1.10;;;14.10;70.40;;;;;;4979224;28;20026;-80
2022/06/28 04:35:50;;;;;;;3.53;1.20;;;14.20;70.30;;;;;;4977975;28;20031;-80
2022/06/28 04:38:16;;;;;;;3.08;1.10;;;14.10;70.50;;;;;;4979252;28;20029;-80
2022/06/28 04:40:41;;;;;;;2.88;1.30;;;14.00;70.70;;;;;;4979150;28;20063;-80
2022/06/28 04:43:07;;;;;;;2.05;1.25;;;13.90;71.30;;;;;;4978895;28;20085;-78
2022/06/28 04:45:33;;;;;;;4.18;1.60;;;13.90;71.40;;;;;;4978464;28;20035;-79
2022/06/28 04:47:59;;;;;;;4.93;1.58;;;13.90;71.40;;;;;;4979068;28;20114;-82
2022/06/28 04:50:24;;;;;;;5.43;1.63;;;13.90;71.60;;;;;;4982778;28;20096;-78
2022/06/28 04:52:50;;;;;;;4.13;1.30;;;13.90;71.40;;;;;;4985170;28;20027;-78
2022/06/28 04:55:17;;;;;;;4.25;1.20;;;13.90;71.30;;;;;;4991908;28;20045;-80
2022/06/28 04:57:43;;;;;;;5.53;1.20;;;13.90;71.90;;;;;;4992827;28;20035;-80
2022/06/28 05:00:10;;;;;;;4.05;1.13;;;13.90;71.50;;;;;;4998369;28;20097;-80
2022/06/28 05:02:36;;;;;;;5.07;1.63;;;14.00;71.60;;;;;;4981733;28;20030;-79
2022/06/28 05:05:11;;;;;;;5.78;1.45;;;14.10;70.90;;;;;;4988943;28;20019;-80
2022/06/28 05:07:37;;;;;;;2.88;1.45;;;14.10;71.40;;;;;;4988811;28;20437;-81
2022/06/28 05:10:04;;;;;;;4.57;1.73;;;14.20;71.00;;;;;;4977606;28;20042;-80
2022/06/28 05:12:30;;;;;;;2.08;1.13;;;14.10;71.60;;;;;;4985280;28;20035;-77
2022/06/28 05:14:55;;;;;;;4.88;1.67;;;14.10;71.20;;;;;;4989146;28;20045;-80
2022/06/28 05:17:21;;;;;;;5.28;1.92;;;14.10;71.30;;;;;;4991286;28;20030;-80
2022/06/28 05:19:48;;;;;;;1.65;1.13;;;14.10;71.80;;;;;;4989760;28;20030;-79
2022/06/28 05:22:14;;;;;;;3.33;1.17;;;14.10;71.40;;;;;;4980888;28;20018;-82
2022/06/28 05:24:40;;;;;;;5.43;1.40;;;14.00;71.90;;;;;;4997886;28;20053;-82
2022/06/28 05:27:06;;;;;;;2.28;1.23;;;14.00;72.00;;;;;;4982681;28;20027;-90
2022/06/28 05:29:32;;;;;;;3.90;1.40;;;14.10;71.90;;;;;;4995561;28;20026;-90
2022/06/28 05:31:58;;;;;;;4.47;1.40;;;14.20;71.40;;;;;;4977088;28;20046;-91
2022/06/28 05:34:24;;;;;;;1.88;1.45;;;14.20;72.00;;;;;;4978307;28;20034;-90
2022/06/28 05:36:50;;;;;;;5.55;1.50;;;14.20;72.20;;;;;;4994858;28;20374;-90
2022/06/28 05:39:16;;;;;;;3.42;1.63;;;14.20;72.80;;;;;;4996076;28;20022;-91
2022/06/28 05:41:43;;;;;;;7.22;1.58;;;14.20;72.40;;;;;;4996290;28;20033;-92
2022/06/28 05:44:10;;;;;;;2.05;1.13;;;14.20;72.30;;;;;;4996710;28;20038;-90
2022/06/28 05:46:35;;;;;;;3.17;1.23;;;14.20;72.50;;;;;;4996983;28;20022;-91
2022/06/28 05:49:02;;;;;;;4.55;1.50;;;14.20;73.20;;;;;;4996773;28;20402;-90
2022/06/28 05:51:29;;;;;;;4.60;1.35;;;14.20;73.30;;;;;;4996694;28;20042;-91
2022/06/28 05:53:56;;;;;;;3.63;1.50;;;14.20;73.50;;;;;;4997429;28;20547;-90
2022/06/28 05:56:21;;;;;;;4.20;1.30;;;14.20;73.30;;;;;;4994934;28;20684;-90
2022/06/28 05:58:47;;;;;;;4.63;1.25;;;14.30;73.00;;;;;;5012538;28;20084;-90
2022/06/28 06:01:13;;;;;;;2.13;1.42;;;14.30;72.90;;;;;;4997711;28;20046;-90
2022/06/28 06:03:39;;;;;;;3.00;1.40;;;14.40;72.90;;;;;;4976902;28;20034;-90
2022/06/28 06:06:04;;;;;;;3.22;1.30;;;14.30;73.10;;;;;;4976923;28;20034;-91
2022/06/28 06:08:30;;;;;;;6.85;1.25;;;14.30;73.30;;;;;;4993613;28;20073;-90
2022/06/28 06:10:56;;;;;;;2.22;1.05;;;14.20;73.30;;;;;;4997375;28;20019;-90
2022/06/28 06:13:21;;;;;;;3.13;1.30;;;14.30;73.60;;;;;;4995589;28;20057;-90
2022/06/28 06:15:47;;;;;;;3.92;1.05;;;14.30;73.60;;;;;;4997295;28;20077;-90
2022/06/28 06:18:13;;;;;;;7.75;1.52;;;14.30;73.90;;;;;;4995815;28;20050;-90
2022/06/28 06:20:38;;;;;;;8.15;1.77;;;14.40;74.00;;;;;;4996143;28;20026;-90
2022/06/28 06:23:04;;;;;;;3.20;1.58;;;14.40;74.10;;;;;;4996106;28;20030;-91
2022/06/28 06:25:30;;;;;;;1.73;0.90;;;14.50;74.20;;;;;;4997253;28;20030;-91
2022/06/28 06:27:55;;;;;;;1.48;0.93;;;14.50;74.30;;;;;;4985863;28;20082;-90
2022/06/28 06:30:21;;;;;;;4.60;1.33;;;14.60;73.90;;;;;;4976551;28;20031;-90
2022/06/28 06:32:47;;;;;;;4.63;1.33;;;14.60;74.40;;;;;;4976450;28;20379;-90
2022/06/28 06:35:12;;;;;;;3.53;1.30;;;14.70;74.20;;;;;;4977320;28;20034;-90
2022/06/28 06:37:38;;;;;;;3.42;1.20;;;14.70;74.40;;;;;;4995423;28;20026;-91
2022/06/28 06:40:04;;;;;;;2.50;1.48;;;14.70;74.20;;;;;;4995751;28;20034;-91
2022/06/28 06:42:30;;;;;;;2.30;1.02;;;14.80;74.60;;;;;;4996662;28;20030;-91
2022/06/28 06:44:56;;;;;;;2.92;1.00;;;14.90;74.00;;;;;;4995336;28;20038;-91
2022/06/28 06:47:22;;;;;;;2.92;1.00;;;14.90;74.00;;;;;;4977015;28;20026;-91
2022/06/28 06:49:48;;;;;;;5.22;1.50;;;15.00;73.90;;;;;;4977412;28;20046;-91
2022/06/28 06:52:14;;;;;;;2.17;1.20;;;15.20;73.70;;;;;;4976107;28;20026;-91
2022/06/28 06:54:39;;;;;;;4.20;1.40;;;15.20;74.00;;;;;;4977377;28;20035;-91
2022/06/28 06:57:07;;;;;;;3.47;1.15;;;15.30;73.80;;;;;;4976030;28;20047;-92
2022/06/28 06:59:33;;;;;;;1.85;0.93;;;15.30;73.60;;;;;;4975744;28;20023;-90
2022/06/28 07:01:59;;;;;;;5.68;1.05;;;15.50;74.10;;;;;;4977292;28;20053;-91
2022/06/28 07:04:24;;;;;;;3.67;1.23;;;15.60;73.70;;;;;;4975917;28;20503;-91
2022/06/28 07:06:50;;;;;;;4.85;1.27;;;15.60;74.10;;;;;;4977002;28;20066;-91
2022/06/28 07:09:16;;;;;;;5.07;1.20;;;15.80;73.60;;;;;;4975501;28;20031;-90
2022/06/28 07:11:41;;;;;;;3.95;1.10;;;15.80;73.10;;;;;;4975381;28;20042;-91
2022/06/28 07:14:07;;;;;;;3.45;0.80;;;15.90;73.10;;;;;;4993235;28;20035;-91
2022/06/28 07:16:33;;;;;;;5.70;1.55;;;16.00;72.50;;;;;;5008553;28;20039;-90
2022/06/28 07:18:58;;;;;;;1.60;0.90;;;16.00;72.50;;;;;;4976575;28;20449;-89
2022/06/28 07:21:25;;;;;;;2.67;1.05;;;16.20;72.30;;;;;;4979652;28;20026;-90
2022/06/28 07:23:50;;;;;;;7.88;1.33;;;16.30;72.50;;;;;;4993440;28;20030;-89
2022/06/28 07:26:18;;;;;;;2.40;0.68;;;16.30;71.90;;;;;;4993943;28;20106;-89
2022/06/28 07:28:44;;;;;;;1.75;0.50;;;16.50;71.70;;;;;;4996348;28;20015;-88
2022/06/28 07:31:10;;;;;;;2.30;0.70;;;16.70;70.30;;;;;;4985346;28;20489;-90
2022/06/28 07:33:36;;;;;;;2.33;0.82;;;16.80;69.70;;;;;;4994145;28;20497;-87
2022/06/28 07:36:02;;;;;;;2.45;0.95;;;17.10;68.50;;;;;;4989000;28;20030;-86
2022/06/28 07:38:29;;;;;;;3.60;0.90;;;17.80;66.50;;;;;;4975953;28;20034;-84
2022/06/28 07:40:59;;;;;;;2.13;0.60;;;18.90;63.50;;;;;;4980632;28;20465;-87
2022/06/28 07:43:25;;;;;;;4.63;0.90;;;21.00;57.40;;;;;;4993979;28;20023;-87
2022/06/28 07:45:53;;;;;;;3.72;0.60;;;24.40;49.90;;;;;;4995011;28;20034;-85
2022/06/28 07:48:19;;;;;;;2.08;0.50;;;26.50;42.50;;;;;;4994205;28;20067;-87
2022/06/28 07:53:32;;;;;;;4.65;0.90;;;30.00;34.10;;;;;;4981473;28;20029;-87
2022/06/28 07:55:58;;;;;;;2.90;0.45;;;31.40;31.80;;;;;;4984443;28;20528;-86
2022/06/28 07:58:24;;;;;;;4.18;1.25;;;32.70;31.10;;;;;;4979089;28;20069;-88
2022/06/28 08:00:50;;;;;;;3.10;0.65;;;30.90;32.20;;;;;;4994914;28;20055;-86
2022/06/28 08:03:15;;;;;;;3.22;0.73;;;32.10;30.80;;;;;;4979507;28;20033;-89
2022/06/28 08:05:41;;;;;;;3.38;0.93;;;32.80;30.10;;;;;;4989171;28;20034;-86
2022/06/28 08:08:07;;;;;;;3.33;0.63;;;33.60;29.20;;;;;;4987978;28;20535;-88
2022/06/28 08:10:33;;;;;;;4.18;0.80;;;33.40;29.30;;;;;;4988360;28;20858;-89
2022/06/28 08:12:59;;;;;;;3.00;0.60;;;32.50;30.00;;;;;;4982059;28;20033;-90
2022/06/28 08:15:24;;;;;;;3.75;0.93;;;30.40;31.20;;;;;;4991924;28;20026;-90
2022/06/28 08:17:50;;;;;;;4.22;0.68;;;27.90;34.90;;;;;;5004603;28;20488;-89
2022/06/28 08:20:16;;;;;;;2.05;0.50;;;27.10;37.10;;;;;;5000798;28;21163;-90
2022/06/28 08:22:42;;;;;;;4.00;0.40;;;26.80;38.40;;;;;;4984490;28;20031;-91
2022/06/28 08:25:08;;;;;;;4.40;0.60;;;26.00;40.40;;;;;;4987977;28;20034;-90
2022/06/28 08:27:34;;;;;;;3.15;0.60;;;25.10;41.50;;;;;;4998466;28;20504;-90
2022/06/28 08:30:00;;;;;;;4.28;0.85;;;24.00;43.80;;;;;;4988603;28;20035;-89
2022/06/28 08:32:26;;;;;;;3.92;0.60;;;23.40;45.40;;;;;;5006800;28;20037;-90
2022/06/28 08:34:51;;;;;;;4.25;1.10;;;23.00;46.60;;;;;;4978810;28;20409;-91
2022/06/28 08:37:18;;;;;;;3.90;0.60;;;23.00;46.70;;;;;;4979241;28;20019;-89
2022/06/28 08:39:43;;;;;;;3.22;0.60;;;23.20;46.20;;;;;;4978545;28;20035;-89
2022/06/28 08:42:11;;;;;;;7.53;0.82;;;24.10;44.20;;;;;;4978272;28;20034;-91
2022/06/28 08:44:37;;;;;;;7.55;0.85;;;23.90;44.30;;;;;;4994764;28;20042;-90
2022/06/28 08:47:04;;;;;;;4.97;0.50;;;23.90;44.60;;;;;;4995161;28;20034;-91
2022/06/28 08:49:48;;;;;;;4.38;0.77;;;24.10;44.50;;;;;;4981130;28;20708;-91
2022/06/28 08:52:14;;;;;;;2.70;0.40;;;23.90;44.30;;;;;;4996971;28;20023;-91
2022/06/28 08:54:41;;;;;;;3.72;0.63;;;23.50;44.90;;;;;;4996586;28;20057;-92
2022/06/28 08:57:07;;;;;;;1.85;1.00;;;23.20;45.70;;;;;;4985769;28;20046;-90
2022/06/28 08:59:35;;;;;;;3.78;0.70;;;23.50;45.30;;;;;;4994756;28;20370;-90
2022/06/28 09:02:06;;;;;;;3.75;0.70;;;23.20;45.80;;;;;;4984875;28;20046;-89
2022/06/28 09:04:32;;;;;;;3.17;0.60;;;22.80;47.80;;;;;;5013961;28;20492;-90
2022/06/28 09:06:59;;;;;;;1.45;0.77;;;24.40;43.90;;;;;;4988651;28;20050;-91
2022/06/28 09:09:25;;;;;;;3.75;0.50;;;23.80;44.90;;;;;;4987241;28;20107;-91
2022/06/28 09:11:53;;;;;;;3.55;0.60;;;23.50;45.50;;;;;;5000773;28;20415;-90
2022/06/28 09:14:25;;;;;;;4.15;1.00;;;23.30;46.10;;;;;;4990209;28;20030;-91
2022/06/28 09:16:52;;;;;;;4.88;1.15;;;23.70;45.40;;;;;;4993814;28;20027;-89
2022/06/28 09:19:35;;;;;;;4.07;0.85;;;23.50;45.60;;;;;;5012014;28;20051;-90
2022/06/28 09:22:03;;;;;;;4.20;0.60;;;23.00;46.40;;;;;;5004196;28;20025;-90
2022/06/28 09:24:29;;;;;;;2.65;0.60;;;22.90;47.20;;;;;;4987151;28;20077;-90
2022/06/28 09:27:01;;;;;;;3.70;0.77;;;22.90;46.80;;;;;;4990562;28;20027;-90
2022/06/28 09:29:26;;;;;;;4.68;0.60;;;22.70;46.80;;;;;;4985558;28;20034;-89
2022/06/28 09:31:52;;;;;;;2.63;0.52;;;22.80;46.70;;;;;;4982084;28;20485;-89
2022/06/28 09:34:18;;;;;;;4.18;0.73;;;22.90;46.50;;;;;;4978730;28;20043;-89
2022/06/28 09:36:56;;;;;;;5.88;0.60;;;23.10;46.70;;;;;;4978590;28;20521;-91
2022/06/28 09:39:27;;;;;;;3.28;1.10;;;22.90;46.90;;;;;;4987708;28;20117;-90
2022/06/28 09:41:56;;;;;;;3.05;0.85;;;23.70;46.70;;;;;;4996393;28;20018;-90
2022/06/28 09:44:26;;;;;;;4.72;0.80;;;25.30;43.20;;;;;;4996779;28;20127;-89
2022/06/28 09:46:54;;;;;;;2.03;0.60;;;27.30;40.00;;;;;;4997932;28;20444;-89
2022/06/28 09:49:26;;;;;;;2.28;0.70;;;27.70;36.70;;;;;;4986333;28;20450;-89
2022/06/28 09:51:53;;;;;;;3.90;0.70;;;27.40;37.10;;;;;;4976900;28;20123;-91
2022/06/28 09:54:20;;;;;;;4.32;0.73;;;27.80;34.40;;;;;;4978872;28;20401;-91
2022/06/28 09:56:55;;;;;;;7.70;1.30;;;27.00;37.10;;;;;;4983900;28;20065;-88
2022/06/28 09:59:24;;;;;;;4.18;1.05;;;26.40;37.60;;;;;;5003859;28;20048;-89
2022/06/28 10:01:52;;;;;;;4.13;0.60;;;25.80;38.70;;;;;;4986448;28;20027;-91
2022/06/28 10:04:19;;;;;;;4.68;0.60;;;24.80;38.10;;;;;;4984120;28;20213;-89
2022/06/28 10:06:46;;;;;;;2.55;0.60;;;24.10;39.60;;;;;;4977913;28;20029;-90
2022/06/28 10:09:12;;;;;;;3.67;0.70;;;23.80;41.30;;;;;;4977922;28;20035;-90
2022/06/28 10:17:22;;;;;;;4.57;1.10;;;23.70;42.60;;;;;;4990701;28;20061;-92
2022/06/28 10:19:49;;;;;;;3.53;0.70;;;23.60;42.30;;;;;;4977169;28;20162;-90
2022/06/28 10:22:15;;;;;;;1.80;0.52;;;23.60;42.80;;;;;;4993779;28;20116;-92
2022/06/28 10:24:59;;;;;;;3.53;0.70;;;23.20;42.30;;;;;;4991459;28;20038;-92
2022/06/28 10:27:25;;;;;;;3.45;0.60;;;23.10;42.80;;;;;;4976665;28;20031;-92
2022/06/28 10:30:00;;;;;;;4.45;0.63;;;22.80;43.70;;;;;;4976801;28;20038;-91
2022/06/28 10:32:46;;;;;;;4.95;0.80;;;22.60;43.90;;;;;;4982412;28;20026;-91
2022/06/28 10:35:51;;;;;;;4.47;1.33;;;22.60;44.70;;;;;;4995717;28;20023;-91
2022/06/28 10:38:17;;;;;;;4.22;0.75;;;22.60;45.50;;;;;;4982779;28;20115;-90
2022/06/28 10:40:47;;;;;;;5.82;0.90;;;22.60;45.90;;;;;;5009480;28;20493;-92
2022/06/28 10:43:14;;;;;;;2.60;0.80;;;22.70;45.80;;;;;;4996692;28;20030;-90
2022/06/28 10:46:06;;;;;;;1.67;0.70;;;23.00;45.70;;;;;;4984302;28;20038;-90
2022/06/28 10:48:51;;;;;;;4.00;0.70;;;23.20;45.50;;;;;;4977666;28;20026;-91
2022/06/28 10:51:20;;;;;;;2.42;0.90;;;23.30;44.90;;;;;;4977107;28;20324;-90
2022/06/28 10:54:00;;;;;;;4.33;0.80;;;23.10;44.70;;;;;;4976676;28;20105;-91
2022/06/28 10:56:27;;;;;;;3.95;0.80;;;23.20;43.80;;;;;;4994577;28;20500;-91
2022/06/28 10:59:32;;;;;;;5.55;1.00;;;23.30;43.00;;;;;;4981904;28;20031;-85
2022/06/28 11:01:58;;;;;;;3.38;0.52;;;23.70;42.80;;;;;;4984550;28;20066;-84
2022/06/28 11:04:27;;;;;;;4.47;1.10;;;23.90;43.50;;;;;;4980694;28;20089;-83
2022/06/28 11:06:56;;;;;;;4.15;0.65;;;23.80;45.70;;;;;;4976241;28;20121;-81
2022/06/28 11:09:38;;;;;;;3.33;0.73;;;23.60;43.40;;;;;;4978390;28;20509;-80
2022/06/28 11:12:08;;;;;;;4.07;0.68;;;23.50;43.00;;;;;;4979540;28;20103;-81
2022/06/28 11:14:46;;;;;;;4.18;0.68;;;23.40;46.30;;;;;;4975151;28;20033;-82
2022/06/28 11:17:32;;;;;;;2.70;0.80;;;23.30;40.90;;;;;;4980419;28;20058;-85
2022/06/28 11:20:05;;;;;;;3.42;0.43;;;23.40;42.30;;;;;;4976203;28;20085;-83
2022/06/28 11:22:46;;;;;;;1.17;0.40;;;23.70;41.80;;;;;;4975907;28;20023;-84
2022/06/28 11:25:25;;;;;;;2.03;1.35;;;23.80;41.20;;;;;;4980772;28;20025;-87
2022/06/28 11:27:58;;;;;;;2.47;0.60;;;24.20;41.40;;;;;;4979665;28;20041;-86
2022/06/28 11:30:27;;;;;;;2.38;0.80;;;24.20;40.80;;;;;;4975715;28;20019;-84
2022/06/28 11:32:55;;;;;;;2.13;0.77;;;24.00;41.40;;;;;;4974903;28;20040;-85
2022/06/28 11:35:27;;;;;;;2.60;0.57;;;24.10;43.90;;;;;;4975487;28;20039;-88
2022/06/28 11:38:00;;;;;;;2.40;0.70;;;24.30;42.80;;;;;;4975991;28;20069;-85
2022/06/28 11:40:27;;;;;;;3.10;0.90;;;24.00;40.10;;;;;;4976175;28;20493;-86
2022/06/28 11:43:04;;;;;;;2.10;0.70;;;24.10;41.20;;;;;;4976129;28;20485;-87
2022/06/28 11:45:32;;;;;;;3.88;0.80;;;24.30;43.10;;;;;;4976219;28;20045;-86
2022/06/28 11:48:14;;;;;;;2.90;0.70;;;24.40;40.60;;;;;;4976345;28;20058;-86
2022/06/28 11:50:46;;;;;;;2.05;0.40;;;24.40;43.10;;;;;;4975777;28;20497;-87
2022/06/28 11:53:14;;;;;;;3.55;0.75;;;24.30;40.90;;;;;;4983564;28;20886;-88
2022/06/28 11:55:57;;;;;;;2.92;0.60;;;24.40;39.90;;;;;;4974837;28;20497;-89
2022/06/28 11:58:31;;;;;;;2.88;0.52;;;24.80;41.10;;;;;;4993859;28;20078;-88
2022/06/28 12:01:17;;;;;;;3.00;0.60;;;24.70;38.70;;;;;;5009087;28;20050;-87
2022/06/28 12:03:43;;;;;;;5.13;0.73;;;24.20;39.40;;;;;;4993805;28;20457;-89
2022/06/28 12:06:30;;;;;;;3.28;0.50;;;24.30;41.30;;;;;;4989971;28;20061;-88
2022/06/28 12:09:06;;;;;;;3.45;0.57;;;24.10;40.50;;;;;;4974443;28;20089;-89
2022/06/28 12:11:34;;;;;;;2.65;0.60;;;24.00;40.00;;;;;;4974346;28;20023;-89
2022/06/28 12:14:05;;;;;;;1.95;0.50;;;24.30;42.80;;;;;;4990584;28;20117;-89
2022/06/28 12:16:35;;;;;;;3.72;0.77;;;24.30;40.60;;;;;;4994384;28;20026;-88
2022/06/28 12:19:01;;;;;;;;;;;24.10;40.40;;;;;;4975088;28;20050;-86
2022/06/28 12:21:28;;;;;;;4.38;1.08;;;24.40;39.30;;;;;;4974377;28;19945;-87
2022/06/28 12:23:55;;;;;;;2.75;0.43;;;24.70;39.50;;;;;;4975564;28;20035;-89
2022/06/28 12:26:36;;;;;;;5.25;0.60;;;24.80;38.60;;;;;;4987827;28;20039;-89
2022/06/28 12:29:02;;;;;;;2.58;0.40;;;24.60;38.00;;;;;;4994865;28;20025;-88
2022/06/28 12:31:28;;;;;;;2.75;0.63;;;24.50;38.20;;;;;;4992586;28;20038;-89
2022/06/28 12:33:54;;;;;;;1.80;0.40;;;24.90;39.10;;;;;;4993064;28;20022;-88
2022/06/28 12:36:19;;;;;;;4.80;0.57;;;24.80;37.40;;;;;;4993962;28;20030;-85
2022/06/28 12:38:45;;;;;;;5.40;0.82;;;24.60;37.40;;;;;;4994262;28;20034;-86
2022/06/28 12:41:10;;;;;;;2.63;0.70;;;24.50;37.20;;;;;;4981457;28;20034;-85
2022/06/28 12:43:36;;;;;;;3.17;0.52;;;24.70;38.20;;;;;;4978567;28;20030;-83
2022/06/28 12:46:02;;;;;;;4.25;0.98;;;24.60;37.90;;;;;;4986625;28;20508;-83
2022/06/28 12:48:27;;;;;;;1.05;0.35;;;24.50;36.40;;;;;;4992646;28;20026;-84
2022/06/28 12:50:53;;;;;;;6.05;0.63;;;24.70;39.70;;;;;;4978724;28;20034;-84
2022/06/28 12:53:20;;;;;;;1.73;0.50;;;24.70;37.50;;;;;;4976846;28;20031;-83
2022/06/28 12:55:46;;;;;;;3.33;0.60;;;24.70;38.20;;;;;;4987254;28;20050;-87
2022/06/28 12:58:12;;;;;;;2.33;0.40;;;24.90;38.20;;;;;;4997921;28;20046;-88
2022/06/28 13:00:38;;;;;;;2.33;0.60;;;25.10;38.70;;;;;;4988449;28;20037;-83
2022/06/28 13:03:05;;;;;;;1.88;0.45;;;25.10;36.90;;;;;;4991615;28;20026;-88
2022/06/28 13:05:30;;;;;;;1.38;0.30;;;24.80;37.50;;;;;;4997144;28;20448;-90
2022/06/28 13:07:56;;;;;;;2.17;0.47;;;24.80;37.60;;;;;;4997039;28;20022;-88